Time;durP1;ratioP1;P1;durP2;ratioP2;P2;SDS_P1;SDS_P2;PMS_P1;PMS_P2;Temp;Humidity;BMP_temperature;BMP_pressure;BME280_temperature;BME280_humidity;BME280_pressure;Samples;Min_cycle;Max_cycle;Signal;HPM_P1;HPM_P2
2021/05/02 00:02:42;;;;;;;21.03;15.60;;;7.20;99.90;;;;;;5047099;28;20207;-77
2021/05/02 00:05:29;;;;;;;20.97;13.90;;;7.30;99.90;;;;;;5046327;28;20286;-77
2021/05/02 00:08:15;;;;;;;23.00;15.67;;;7.30;99.90;;;;;;5038880;28;20214;-76
2021/05/02 00:11:00;;;;;;;23.17;14.83;;;7.30;99.90;;;;;;5048240;28;20231;-77
2021/05/02 00:13:45;;;;;;;21.77;15.90;;;7.40;99.90;;;;;;5048287;28;20210;-77
2021/05/02 00:16:30;;;;;;;23.43;15.47;;;7.40;99.90;;;;;;5054293;28;20202;-77
2021/05/02 00:19:15;;;;;;;20.97;14.30;;;7.50;99.90;;;;;;5072542;28;20203;-77
2021/05/02 00:22:00;;;;;;;21.70;13.83;;;7.50;99.90;;;;;;5074096;28;20222;-77
2021/05/02 00:24:47;;;;;;;20.77;12.87;;;7.80;99.90;;;;;;5071936;28;20230;-76
2021/05/02 00:27:32;;;;;;;17.97;12.80;;;7.60;99.90;;;;;;5059384;28;20732;-77
2021/05/02 00:30:22;;;;;;;18.27;11.93;;;7.70;99.90;;;;;;5050527;28;20690;-77
2021/05/02 00:33:07;;;;;;;17.23;12.30;;;7.70;99.90;;;;;;5049059;28;20245;-77
2021/05/02 00:35:52;;;;;;;17.00;11.83;;;7.70;99.90;;;;;;5046585;28;20629;-77
2021/05/02 00:38:38;;;;;;;17.67;10.97;;;7.70;99.90;;;;;;5047483;28;20214;-77
2021/05/02 00:41:29;;;;;;;15.90;11.23;;;7.60;99.90;;;;;;5045437;28;20285;-77
2021/05/02 00:44:24;;;;;;;18.07;12.20;;;7.60;99.90;;;;;;5048300;28;20565;-77
2021/05/02 00:47:11;;;;;;;18.10;12.43;;;7.50;99.90;;;;;;5047431;28;20242;-77
2021/05/02 00:49:58;;;;;;;18.67;12.30;;;7.40;99.90;;;;;;5071779;28;20263;-77
2021/05/02 00:53:07;;;;;;;18.13;11.63;;;7.40;99.90;;;;;;5072999;28;20255;-77
2021/05/02 00:55:56;;;;;;;18.80;13.30;;;7.30;99.90;;;;;;5064488;28;20202;-77
2021/05/02 00:58:49;;;;;;;18.00;13.13;;;7.20;99.90;;;;;;5048231;28;20250;-77
2021/05/02 01:01:39;;;;;;;20.20;13.53;;;7.10;99.90;;;;;;5046964;28;20254;-77
2021/05/02 01:04:30;;;;;;;19.00;12.53;;;7.00;99.90;;;;;;5046386;28;20203;-77
2021/05/02 01:07:17;;;;;;;19.27;13.83;;;6.90;99.90;;;;;;5041774;28;20269;-77
2021/05/02 01:10:07;;;;;;;20.73;13.73;;;6.90;99.90;;;;;;5047082;28;20237;-77
2021/05/02 01:12:54;;;;;;;20.57;13.23;;;6.80;99.90;;;;;;5047796;28;20207;-77
2021/05/02 01:15:48;;;;;;;22.27;13.20;;;6.70;99.90;;;;;;5045808;28;20291;-77
2021/05/02 01:18:37;;;;;;;20.33;13.83;;;6.60;99.90;;;;;;5045052;28;20211;-77
2021/05/02 01:21:30;;;;;;;21.93;14.13;;;6.60;99.90;;;;;;5047634;28;20233;-76
2021/05/02 01:24:16;;;;;;;20.00;13.33;;;6.60;99.90;;;;;;5047455;28;20532;-77
2021/05/02 01:27:00;;;;;;;19.73;13.27;;;6.60;99.90;;;;;;5048499;28;20303;-77
2021/05/02 01:29:45;;;;;;;25.50;14.70;;;6.60;99.90;;;;;;5045992;28;20297;-77
2021/05/02 01:32:31;;;;;;;20.67;12.90;;;6.60;99.90;;;;;;5046657;28;20206;-77
2021/05/02 01:35:17;;;;;;;18.70;11.63;;;6.60;99.90;;;;;;5047268;28;20199;-77
2021/05/02 01:38:02;;;;;;;17.70;10.20;;;6.70;99.90;;;;;;5045055;28;20716;-77
2021/05/02 01:40:48;;;;;;;19.00;11.13;;;6.70;99.90;;;;;;5047511;28;20245;-77
2021/05/02 01:43:33;;;;;;;17.17;9.03;;;6.70;99.90;;;;;;5049766;28;20203;-77
2021/05/02 01:46:23;;;;;;;17.13;9.10;;;6.80;99.90;;;;;;5050429;28;20258;-77
2021/05/02 01:49:10;;;;;;;14.27;8.60;;;6.80;99.90;;;;;;5050290;28;20253;-77
2021/05/02 01:51:56;;;;;;;14.23;8.30;;;6.80;99.90;;;;;;5046390;28;20235;-77
2021/05/02 01:54:43;;;;;;;15.97;8.20;;;6.90;99.90;;;;;;5047353;28;20215;-79
2021/05/02 01:57:30;;;;;;;14.10;7.30;;;6.90;99.90;;;;;;5045253;28;20207;-77
2021/05/02 02:00:40;;;;;;;11.23;7.70;;;6.90;99.90;;;;;;5048692;28;20804;-77
2021/05/02 02:03:25;;;;;;;17.07;7.97;;;6.90;99.90;;;;;;5050211;28;20567;-78
2021/05/02 02:06:12;;;;;;;15.20;8.07;;;6.90;99.90;;;;;;5047533;28;20350;-78
2021/05/02 02:08:58;;;;;;;12.50;7.90;;;6.90;99.90;;;;;;5049022;28;20596;-79
2021/05/02 02:11:43;;;;;;;12.47;8.33;;;6.90;99.90;;;;;;5048955;28;20261;-78
2021/05/02 02:14:29;;;;;;;13.30;7.83;;;6.80;99.90;;;;;;5048460;28;20494;-74
2021/05/02 02:17:14;;;;;;;12.73;7.63;;;6.80;99.90;;;;;;5048728;28;20707;-78
2021/05/02 02:19:59;;;;;;;14.83;8.07;;;6.70;99.90;;;;;;5048840;28;20227;-78
2021/05/02 02:22:45;;;;;;;16.00;8.13;;;6.70;99.90;;;;;;5046431;28;20215;-77
2021/05/02 02:25:34;;;;;;;13.13;8.13;;;6.60;99.90;;;;;;5047140;28;20262;-77
2021/05/02 02:28:21;;;;;;;15.83;8.07;;;6.50;99.90;;;;;;5048945;28;20226;-78
2021/05/02 02:31:08;;;;;;;15.93;8.27;;;6.50;99.90;;;;;;5048402;28;20987;-76
2021/05/02 02:33:53;;;;;;;12.70;7.87;;;6.40;99.90;;;;;;5048651;28;20281;-77
2021/05/02 02:36:39;;;;;;;12.03;8.03;;;6.30;99.90;;;;;;5047239;28;20318;-78
2021/05/02 02:39:24;;;;;;;14.53;9.13;;;6.30;99.90;;;;;;5047251;28;20268;-77
2021/05/02 02:42:12;;;;;;;12.63;7.90;;;6.20;99.90;;;;;;5045096;28;20217;-76
2021/05/02 02:44:59;;;;;;;14.93;8.37;;;6.10;99.90;;;;;;5045595;28;20693;-78
2021/05/02 02:47:47;;;;;;;14.33;8.50;;;6.00;99.90;;;;;;5047098;28;20235;-78
2021/05/02 02:50:33;;;;;;;14.37;8.07;;;6.00;99.90;;;;;;5047239;28;20269;-78
2021/05/02 02:53:21;;;;;;;13.97;8.23;;;5.90;99.90;;;;;;5046979;28;20393;-78
2021/05/02 02:56:08;;;;;;;14.97;8.27;;;5.90;99.90;;;;;;5044631;28;20776;-77
2021/05/02 02:58:57;;;;;;;12.60;7.50;;;5.90;99.90;;;;;;5048269;28;20207;-78
2021/05/02 03:01:42;;;;;;;11.00;7.07;;;5.90;99.90;;;;;;5047779;28;20222;-78
2021/05/02 03:04:31;;;;;;;14.60;7.67;;;6.00;99.90;;;;;;5046954;28;20202;-73
2021/05/02 03:07:19;;;;;;;14.90;6.97;;;6.00;99.90;;;;;;5046911;28;20738;-76
2021/05/02 03:10:06;;;;;;;14.33;6.70;;;6.10;99.90;;;;;;5047876;28;20778;-78
2021/05/02 03:12:53;;;;;;;10.80;6.00;;;6.10;99.90;;;;;;5051248;28;20209;-79
2021/05/02 03:15:39;;;;;;;10.73;5.83;;;6.10;99.90;;;;;;5052017;28;20230;-80
2021/05/02 03:18:29;;;;;;;14.03;5.83;;;6.10;99.90;;;;;;5053283;28;20203;-79
2021/05/02 03:21:19;;;;;;;13.67;6.37;;;6.10;99.90;;;;;;5053078;28;20262;-79
2021/05/02 03:24:08;;;;;;;13.33;6.33;;;6.10;99.90;;;;;;5052688;28;20207;-79
2021/05/02 03:27:00;;;;;;;10.47;5.07;;;6.20;99.90;;;;;;5052806;28;20301;-79
2021/05/02 03:29:47;;;;;;;13.53;5.60;;;6.20;99.90;;;;;;5051807;28;20558;-79
2021/05/02 03:32:35;;;;;;;10.60;5.23;;;6.20;99.90;;;;;;5051630;28;20699;-77
2021/05/02 03:35:24;;;;;;;10.50;5.27;;;6.20;99.90;;;;;;5051606;28;20206;-79
2021/05/02 03:38:23;;;;;;;12.93;5.53;;;6.30;99.90;;;;;;5052042;28;20241;-77
2021/05/02 03:41:09;;;;;;;13.67;5.13;;;6.30;99.90;;;;;;5052232;28;21146;-75
2021/05/02 03:43:54;;;;;;;13.43;5.97;;;6.30;99.90;;;;;;5054553;28;20287;-77
2021/05/02 03:46:38;;;;;;;10.70;5.10;;;6.30;99.90;;;;;;5051920;28;20230;-79
2021/05/02 03:49:23;;;;;;;11.00;4.77;;;6.40;99.90;;;;;;5071461;28;20215;-74
2021/05/02 03:52:08;;;;;;;9.87;4.93;;;6.40;99.90;;;;;;5075036;28;21820;-76
2021/05/02 03:54:54;;;;;;;9.57;4.50;;;6.40;99.90;;;;;;5050101;28;20198;-77
2021/05/02 03:57:39;;;;;;;9.87;4.90;;;6.50;99.90;;;;;;5048037;28;20628;-77
2021/05/02 04:00:23;;;;;;;9.60;4.57;;;6.50;99.90;;;;;;5049705;28;20288;-77
2021/05/02 04:03:08;;;;;;;9.33;4.27;;;6.50;99.90;;;;;;5054869;28;20277;-77
2021/05/02 04:05:53;;;;;;;7.73;4.23;;;6.50;99.90;;;;;;5050115;28;20226;-78
2021/05/02 04:08:38;;;;;;;10.70;4.30;;;6.50;99.90;;;;;;5050251;28;20252;-80
2021/05/02 04:11:23;;;;;;;8.30;4.57;;;6.50;99.90;;;;;;5051548;28;20218;-79
2021/05/02 04:14:10;;;;;;;8.63;4.17;;;6.50;99.90;;;;;;5049599;28;20242;-77
2021/05/02 04:16:56;;;;;;;10.77;4.60;;;6.40;99.90;;;;;;5047547;28;20204;-76
2021/05/02 04:19:42;;;;;;;8.07;4.13;;;6.40;99.90;;;;;;5046893;28;20210;-77
2021/05/02 04:22:30;;;;;;;10.07;4.83;;;6.40;99.90;;;;;;5045066;28;20275;-77
2021/05/02 04:25:15;;;;;;;9.07;4.13;;;6.30;99.90;;;;;;5048691;28;20286;-78
2021/05/02 04:28:01;;;;;;;7.47;4.83;;;6.20;99.90;;;;;;5047088;28;20238;-79
2021/05/02 04:30:46;;;;;;;11.60;5.03;;;6.20;99.90;;;;;;5050350;28;20227;-79
2021/05/02 04:33:30;;;;;;;10.87;4.77;;;6.10;99.90;;;;;;5050538;28;20217;-77
2021/05/02 04:36:15;;;;;;;12.53;5.27;;;6.00;99.90;;;;;;5048971;28;20210;-78
2021/05/02 04:39:01;;;;;;;11.73;4.83;;;6.00;99.90;;;;;;5050705;28;20230;-79
2021/05/02 04:41:46;;;;;;;11.13;5.23;;;5.90;99.90;;;;;;5050080;28;20222;-79
2021/05/02 04:44:32;;;;;;;9.70;5.03;;;5.80;99.90;;;;;;5049390;28;20210;-78
2021/05/02 04:47:19;;;;;;;10.37;5.40;;;5.80;99.90;;;;;;5050166;28;20308;-77
2021/05/02 04:50:07;;;;;;;11.70;5.30;;;5.70;99.90;;;;;;5048927;28;20748;-79
2021/05/02 04:52:52;;;;;;;13.30;6.47;;;5.70;99.90;;;;;;5057747;28;20198;-76
2021/05/02 04:55:36;;;;;;;9.53;4.90;;;5.60;99.90;;;;;;5055000;28;20303;-79
2021/05/02 04:58:21;;;;;;;13.13;6.13;;;5.60;99.90;;;;;;5051509;28;20210;-77
2021/05/02 05:01:08;;;;;;;11.53;5.20;;;5.50;99.90;;;;;;5053267;28;20310;-78
2021/05/02 05:03:55;;;;;;;12.27;5.67;;;5.50;99.90;;;;;;5047210;28;20215;-79
2021/05/02 05:06:40;;;;;;;11.63;5.53;;;5.50;99.90;;;;;;5046930;28;20262;-79
2021/05/02 05:09:25;;;;;;;13.90;6.20;;;5.40;99.90;;;;;;5052228;28;20254;-79
2021/05/02 05:12:10;;;;;;;12.40;5.83;;;5.40;99.90;;;;;;5052359;28;20216;-74
2021/05/02 05:14:55;;;;;;;10.03;5.63;;;5.40;99.90;;;;;;5048533;28;20211;-77
2021/05/02 05:17:41;;;;;;;12.37;6.80;;;5.30;99.90;;;;;;5051931;28;20246;-76
2021/05/02 05:20:25;;;;;;;17.93;7.03;;;5.40;99.90;;;;;;5050220;28;20372;-79
2021/05/02 05:23:10;;;;;;;11.40;6.53;;;5.30;99.90;;;;;;5050655;28;20806;-74
2021/05/02 05:25:56;;;;;;;13.13;6.63;;;5.30;99.90;;;;;;5048102;28;20230;-76
2021/05/02 05:28:41;;;;;;;12.50;6.70;;;5.30;99.90;;;;;;5043290;28;20234;-79
2021/05/02 05:31:25;;;;;;;15.27;6.63;;;5.30;99.90;;;;;;5050752;28;20233;-79
2021/05/02 05:34:11;;;;;;;17.97;7.57;;;5.30;99.90;;;;;;5051732;28;20696;-76
2021/05/02 05:36:56;;;;;;;14.33;8.07;;;5.30;99.90;;;;;;5049563;28;20565;-79
2021/05/02 05:39:41;;;;;;;17.87;7.33;;;5.30;99.90;;;;;;5050710;28;20234;-78
2021/05/02 05:42:26;;;;;;;16.33;8.03;;;5.30;99.90;;;;;;5049542;28;20821;-78
2021/05/02 05:45:11;;;;;;;18.43;8.00;;;5.30;99.90;;;;;;5051245;28;20230;-79
2021/05/02 05:47:56;;;;;;;13.83;7.40;;;5.40;99.90;;;;;;5050980;28;20305;-77
2021/05/02 05:50:46;;;;;;;15.67;7.73;;;5.40;99.90;;;;;;5051498;28;20241;-79
2021/05/02 05:53:31;;;;;;;16.03;8.27;;;5.40;99.90;;;;;;5051287;28;20729;-78
2021/05/02 05:56:16;;;;;;;16.80;8.03;;;5.40;99.90;;;;;;5048553;28;20962;-78
2021/05/02 05:59:01;;;;;;;15.00;7.50;;;5.40;99.90;;;;;;5050151;28;20206;-77
2021/05/02 06:01:46;;;;;;;11.23;6.70;;;5.50;99.90;;;;;;5047277;28;20250;-80
2021/05/02 06:04:31;;;;;;;13.50;7.57;;;5.50;99.90;;;;;;5050669;28;20213;-80
2021/05/02 06:07:16;;;;;;;15.10;8.03;;;5.50;99.90;;;;;;5052169;28;20221;-79
2021/05/02 06:10:01;;;;;;;13.57;7.07;;;5.60;99.90;;;;;;5053209;28;20242;-76
2021/05/02 06:12:46;;;;;;;15.13;6.80;;;5.60;99.90;;;;;;5051738;28;20612;-79
2021/05/02 06:15:31;;;;;;;15.57;6.63;;;5.60;99.90;;;;;;5049201;28;20209;-78
2021/05/02 06:18:16;;;;;;;12.57;6.97;;;5.70;99.90;;;;;;5053988;28;20674;-78
2021/05/02 06:21:00;;;;;;;12.93;7.07;;;5.70;99.90;;;;;;5049561;28;20257;-79
2021/05/02 06:23:46;;;;;;;14.13;6.40;;;5.70;99.90;;;;;;5053673;28;20213;-78
2021/05/02 06:26:32;;;;;;;14.07;8.60;;;5.80;99.90;;;;;;5053540;28;20207;-77
2021/05/02 06:29:16;;;;;;;14.87;6.00;;;5.80;99.90;;;;;;5062369;28;20206;-75
2021/05/02 06:32:01;;;;;;;14.53;6.13;;;5.90;99.90;;;;;;5066684;28;20198;-75
2021/05/02 06:34:46;;;;;;;11.07;6.20;;;5.90;99.90;;;;;;5055694;28;20217;-80
2021/05/02 06:37:31;;;;;;;10.47;5.93;;;6.00;99.90;;;;;;5053658;28;20212;-80
2021/05/02 06:40:16;;;;;;;10.47;6.03;;;6.00;99.90;;;;;;5050486;28;20313;-77
2021/05/02 06:43:01;;;;;;;9.77;5.70;;;6.10;99.90;;;;;;5049180;28;20465;-78
2021/05/02 06:45:46;;;;;;;12.80;5.40;;;6.10;99.90;;;;;;5051046;28;20218;-80
2021/05/02 06:48:31;;;;;;;10.23;4.83;;;6.20;99.90;;;;;;5073169;28;20233;-74
2021/05/02 06:51:16;;;;;;;11.20;4.97;;;6.30;99.90;;;;;;5079234;28;20226;-74
2021/05/02 06:54:02;;;;;;;11.33;4.80;;;6.30;99.90;;;;;;5055151;28;20202;-75
2021/05/02 06:56:48;;;;;;;8.47;4.50;;;6.40;99.90;;;;;;5045957;28;20211;-77
2021/05/02 06:59:33;;;;;;;8.93;5.50;;;6.40;99.90;;;;;;5055790;28;20250;-77
2021/05/02 07:02:17;;;;;;;8.57;4.50;;;6.50;99.90;;;;;;5052072;28;20210;-78
2021/05/02 07:05:02;;;;;;;12.40;3.47;;;6.50;99.90;;;;;;5057047;28;20242;-74
2021/05/02 07:07:48;;;;;;;6.87;3.00;;;6.70;99.90;;;;;;5075645;28;20245;-73
2021/05/02 07:10:33;;;;;;;4.50;2.43;;;6.80;99.90;;;;;;5074302;28;20226;-75
2021/05/02 07:13:19;;;;;;;10.63;3.63;;;6.90;99.90;;;;;;5075891;28;20174;-74
2021/05/02 07:16:05;;;;;;;3.87;2.60;;;7.00;99.90;;;;;;5056099;28;20244;-80
2021/05/02 07:18:51;;;;;;;6.70;2.87;;;7.10;99.90;;;;;;5054759;28;20219;-79
2021/05/02 07:21:36;;;;;;;6.03;2.83;;;7.30;99.90;;;;;;5056527;28;20249;-80
2021/05/02 07:24:21;;;;;;;7.63;2.70;;;7.40;99.90;;;;;;5055195;28;20210;-78
2021/05/02 07:27:06;;;;;;;8.77;3.67;;;7.50;99.90;;;;;;5047735;28;20981;-80
2021/05/02 07:29:51;;;;;;;8.57;3.07;;;7.60;99.90;;;;;;5047853;28;20253;-77
2021/05/02 07:32:36;;;;;;;6.07;2.60;;;7.80;99.90;;;;;;5050744;28;20205;-78
2021/05/02 07:35:21;;;;;;;9.70;3.00;;;7.90;99.90;;;;;;5052327;28;21161;-80
2021/05/02 07:38:06;;;;;;;9.73;2.90;;;8.00;99.90;;;;;;5056692;28;20206;-79
2021/05/02 07:40:52;;;;;;;6.07;2.77;;;8.10;99.90;;;;;;5051713;28;20657;-74
2021/05/02 07:43:36;;;;;;;4.47;2.30;;;8.30;99.90;;;;;;5052490;28;20217;-77
2021/05/02 07:46:22;;;;;;;5.17;2.33;;;8.50;99.90;;;;;;5047516;28;20517;-76
2021/05/02 07:49:06;;;;;;;9.57;2.60;;;8.60;99.90;;;;;;5046371;28;20255;-75
2021/05/02 07:51:52;;;;;;;5.80;2.37;;;8.80;99.90;;;;;;5050212;28;20268;-73
2021/05/02 07:54:36;;;;;;;6.30;2.20;;;8.90;99.90;;;;;;5047347;28;20219;-79
2021/05/02 07:57:21;;;;;;;4.40;2.20;;;9.10;99.90;;;;;;5043796;28;20194;-77
2021/05/02 08:00:07;;;;;;;5.57;2.33;;;9.20;99.90;;;;;;5048440;28;20297;-77
2021/05/02 08:02:53;;;;;;;5.20;2.40;;;9.40;99.90;;;;;;5051740;28;20253;-77
2021/05/02 08:05:38;;;;;;;4.97;2.07;;;9.50;99.90;;;;;;5047559;28;21604;-74
2021/05/02 08:08:23;;;;;;;4.77;2.23;;;9.60;99.90;;;;;;5046358;28;20237;-75
2021/05/02 08:11:08;;;;;;;5.10;2.30;;;9.70;99.90;;;;;;5049182;28;20225;-77
2021/05/02 08:13:52;;;;;;;4.77;2.27;;;9.80;99.90;;;;;;5047415;28;20566;-77
2021/05/02 08:16:37;;;;;;;5.80;2.50;;;9.90;99.90;;;;;;5048511;28;20221;-77
2021/05/02 08:19:23;;;;;;;8.87;1.90;;;10.00;99.90;;;;;;5050757;28;20654;-77
2021/05/02 08:22:08;;;;;;;3.83;1.80;;;10.10;99.90;;;;;;5048637;28;20210;-78
2021/05/02 08:24:52;;;;;;;3.70;1.77;;;10.20;99.90;;;;;;5049317;28;20226;-78
2021/05/02 08:27:37;;;;;;;4.80;2.07;;;10.30;99.90;;;;;;5043509;28;20262;-76
2021/05/02 08:30:22;;;;;;;4.67;1.70;;;10.40;99.90;;;;;;5041451;28;20227;-77
2021/05/02 08:33:07;;;;;;;3.47;1.73;;;10.60;99.90;;;;;;5044540;28;20577;-76
2021/05/02 08:35:52;;;;;;;3.37;1.53;;;10.80;99.90;;;;;;5045420;28;20257;-77
2021/05/02 08:38:37;;;;;;;3.37;2.00;;;11.00;99.90;;;;;;5042112;28;20261;-77
2021/05/02 08:41:22;;;;;;;6.27;1.80;;;11.20;99.90;;;;;;5052139;28;20227;-78
2021/05/02 08:44:08;;;;;;;2.53;1.67;;;11.30;99.90;;;;;;5051884;28;20242;-77
2021/05/02 08:46:53;;;;;;;4.73;1.80;;;11.40;99.90;;;;;;5048976;28;20273;-76
2021/05/02 08:49:38;;;;;;;4.33;2.33;;;11.40;99.90;;;;;;5047540;28;20254;-81
2021/05/02 08:52:24;;;;;;;3.73;2.20;;;11.50;99.90;;;;;;5046674;28;20739;-77
2021/05/02 08:55:09;;;;;;;4.47;1.77;;;11.50;99.90;;;;;;5048994;28;20206;-77
2021/05/02 08:57:54;;;;;;;5.37;1.80;;;11.60;99.90;;;;;;5042366;28;20242;-74
2021/05/02 09:00:39;;;;;;;3.17;1.73;;;11.70;99.90;;;;;;5050477;28;20233;-77
2021/05/02 09:03:41;;;;;;;5.57;1.53;;;11.90;99.90;;;;;;5053490;28;20243;-78
2021/05/02 09:06:27;;;;;;;8.53;2.23;;;12.00;99.90;;;;;;5052113;28;20225;-78
2021/05/02 09:09:13;;;;;;;2.83;1.30;;;12.10;99.90;;;;;;5050437;28;20211;-78
2021/05/02 09:11:58;;;;;;;2.77;1.17;;;12.30;99.90;;;;;;5054840;28;20274;-76
2021/05/02 09:14:45;;;;;;;2.10;1.00;;;12.50;99.90;;;;;;5051076;28;20294;-78
2021/05/02 09:17:31;;;;;;;1.83;1.13;;;12.70;99.90;;;;;;5051102;28;20246;-78
2021/05/02 09:20:39;;;;;;;1.77;1.10;;;12.90;99.90;;;;;;5050213;28;20231;-77
2021/05/02 09:23:34;;;;;;;1.87;1.10;;;13.10;99.90;;;;;;5052645;28;20210;-75
2021/05/02 09:26:24;;;;;;;1.53;1.00;;;13.20;99.90;;;;;;5049995;28;20203;-76
2021/05/02 09:29:08;;;;;;;4.73;1.63;;;13.30;99.90;;;;;;5051268;28;20207;-78
2021/05/02 09:31:53;;;;;;;2.80;1.20;;;13.30;99.90;;;;;;5049607;28;20222;-79
2021/05/02 09:34:47;;;;;;;1.80;1.20;;;13.50;99.90;;;;;;5052666;28;20723;-75
2021/05/02 09:37:34;;;;;;;1.30;1.20;;;13.70;99.30;;;;;;5049518;28;20566;-76
2021/05/02 09:40:19;;;;;;;3.87;2.50;;;13.90;97.60;;;;;;5051269;28;20221;-76
2021/05/02 09:43:04;;;;;;;2.90;2.03;;;14.00;96.90;;;;;;5050082;28;20230;-76
2021/05/02 09:46:08;;;;;;;2.17;1.23;;;14.10;97.20;;;;;;5051169;28;20248;-73
2021/05/02 09:48:55;;;;;;;2.70;1.60;;;14.10;96.80;;;;;;5071140;28;20231;-76
2021/05/02 09:51:45;;;;;;;2.30;1.47;;;14.00;98.90;;;;;;5060719;28;20734;-76
2021/05/02 09:54:31;;;;;;;3.80;1.60;;;14.00;97.90;;;;;;5046155;28;20213;-75
2021/05/02 09:57:23;;;;;;;3.07;1.40;;;14.20;99.90;;;;;;5052369;28;20253;-76
2021/05/02 10:00:11;;;;;;;4.20;2.50;;;14.80;97.40;;;;;;5054279;28;20303;-76
2021/05/02 10:02:56;;;;;;;4.57;1.43;;;15.60;95.40;;;;;;5052545;28;20288;-75
2021/05/02 10:05:53;;;;;;;1.43;1.30;;;16.30;92.80;;;;;;5050283;28;20247;-76
2021/05/02 10:08:41;;;;;;;4.20;1.30;;;16.60;93.00;;;;;;5053347;28;20217;-75
2021/05/02 10:11:26;;;;;;;3.57;1.53;;;16.70;91.10;;;;;;5054216;28;20241;-76
2021/05/02 10:14:11;;;;;;;4.80;1.70;;;16.70;90.70;;;;;;5048530;28;20629;-76
2021/05/02 10:16:56;;;;;;;1.70;1.30;;;16.60;89.90;;;;;;5053167;28;20296;-74
2021/05/02 10:19:42;;;;;;;3.20;1.30;;;16.40;88.00;;;;;;5050629;28;20215;-78
2021/05/02 10:22:27;;;;;;;3.60;1.20;;;16.20;87.70;;;;;;5049427;28;20234;-76
2021/05/02 10:25:14;;;;;;;2.20;1.20;;;16.00;88.20;;;;;;5053678;28;20711;-77
2021/05/02 10:27:59;;;;;;;2.60;1.10;;;15.70;90.10;;;;;;5049833;28;20222;-76
2021/05/02 10:30:47;;;;;;;4.20;1.63;;;15.50;90.50;;;;;;5052441;28;20234;-78
2021/05/02 10:33:36;;;;;;;2.70;1.47;;;15.30;91.00;;;;;;5056015;28;20224;-77
2021/05/02 10:36:23;;;;;;;3.20;1.30;;;15.10;91.30;;;;;;5045987;28;20670;-78
2021/05/02 10:39:13;;;;;;;3.10;1.40;;;15.00;91.50;;;;;;5052045;28;20210;-78
2021/05/02 10:41:57;;;;;;;7.23;2.40;;;14.90;91.70;;;;;;5052610;28;20262;-75
2021/05/02 10:44:42;;;;;;;1.63;1.50;;;14.80;94.10;;;;;;5051523;28;20201;-79
2021/05/02 10:47:42;;;;;;;2.10;1.07;;;15.00;91.70;;;;;;5046593;28;20255;-76
2021/05/02 10:50:33;;;;;;;4.03;1.20;;;15.40;92.30;;;;;;5049842;28;20755;-75
2021/05/02 10:53:19;;;;;;;3.23;1.20;;;15.80;91.40;;;;;;5049438;28;20215;-77
2021/05/02 10:56:06;;;;;;;6.67;1.47;;;16.10;88.80;;;;;;5044923;28;21089;-76
2021/05/02 10:58:58;;;;;;;3.30;1.13;;;16.20;87.40;;;;;;5050843;28;20230;-78
2021/05/02 11:01:43;;;;;;;2.90;1.67;;;16.20;88.10;;;;;;5051204;28;20361;-76
2021/05/02 11:04:56;;;;;;;1.50;1.27;;;16.10;86.80;;;;;;5053357;28;20210;-76
2021/05/02 11:07:42;;;;;;;3.43;1.40;;;16.00;86.70;;;;;;5052445;28;20233;-77
2021/05/02 11:10:50;;;;;;;1.67;1.47;;;15.90;83.40;;;;;;5050755;28;20885;-77
2021/05/02 11:13:35;;;;;;;3.13;1.37;;;15.70;84.80;;;;;;5051202;28;20230;-76
2021/05/02 11:16:22;;;;;;;2.53;1.43;;;15.50;87.90;;;;;;5049261;28;20335;-75
2021/05/02 11:19:09;;;;;;;4.23;1.57;;;15.40;86.80;;;;;;5048606;28;20207;-76
2021/05/02 11:22:07;;;;;;;2.73;1.40;;;15.20;88.70;;;;;;5049288;28;20222;-77
2021/05/02 11:25:06;;;;;;;2.90;1.30;;;15.30;86.90;;;;;;5050785;28;20238;-76
2021/05/02 11:30:53;;;;;;;2.20;1.60;;;15.20;89.50;;;;;;5050972;28;20286;-77
2021/05/02 11:33:39;;;;;;;1.97;1.50;;;15.10;88.90;;;;;;5051902;28;20226;-76
2021/05/02 11:36:37;;;;;;;2.03;1.30;;;15.20;89.60;;;;;;5052804;28;20309;-77
2021/05/02 11:39:42;;;;;;;3.70;1.73;;;15.30;91.10;;;;;;5052033;28;20242;-78
2021/05/02 11:42:28;;;;;;;3.30;1.77;;;15.50;91.80;;;;;;5047068;28;20206;-78
2021/05/02 11:45:13;;;;;;;3.40;1.50;;;15.70;88.00;;;;;;5050872;28;20860;-78
2021/05/02 11:48:01;;;;;;;5.23;1.93;;;16.10;88.20;;;;;;5049841;28;20292;-76
2021/05/02 11:50:49;;;;;;;6.30;1.90;;;16.50;90.40;;;;;;5050043;28;20230;-78
2021/05/02 11:53:40;;;;;;;4.47;1.77;;;17.00;90.20;;;;;;5050274;28;20210;-77
2021/05/02 11:56:30;;;;;;;3.27;1.97;;;17.70;88.20;;;;;;5045992;28;20254;-78
2021/05/02 11:59:16;;;;;;;3.10;1.90;;;18.60;87.90;;;;;;5051288;28;20290;-76
2021/05/02 12:02:01;;;;;;;3.57;1.87;;;19.60;86.90;;;;;;5052381;28;20217;-80
2021/05/02 12:04:45;;;;;;;3.77;1.77;;;20.60;78.00;;;;;;5049259;28;20225;-77
2021/05/02 12:07:30;;;;;;;1.93;1.50;;;21.40;78.20;;;;;;5048752;28;20708;-77
2021/05/02 12:10:17;;;;;;;3.23;1.50;;;21.70;75.30;;;;;;5040152;28;20235;-76
2021/05/02 12:13:02;;;;;;;1.30;1.20;;;21.80;76.40;;;;;;5047216;28;20627;-78
2021/05/02 12:15:59;;;;;;;1.37;1.03;;;21.70;76.60;;;;;;5048859;28;20224;-78
2021/05/02 12:18:50;;;;;;;1.87;1.03;;;21.70;76.00;;;;;;5048212;28;20657;-78
2021/05/02 12:21:37;;;;;;;6.27;1.30;;;22.10;71.10;;;;;;5049067;28;20303;-78
2021/05/02 12:24:24;;;;;;;1.30;1.20;;;22.70;68.50;;;;;;5047207;28;20241;-78
2021/05/02 12:27:10;;;;;;;1.40;1.20;;;23.40;68.30;;;;;;5051793;28;20615;-78
2021/05/02 12:29:55;;;;;;;2.80;1.20;;;24.20;65.40;;;;;;5052689;28;20233;-78
2021/05/02 12:32:42;;;;;;;1.73;1.10;;;25.00;61.00;;;;;;5050939;28;20349;-79
2021/05/02 12:35:27;;;;;;;2.90;1.30;;;25.90;60.30;;;;;;5050404;28;20203;-77
2021/05/02 12:38:24;;;;;;;2.38;1.45;;;26.60;56.20;;;;;;5045363;28;20200;-77
2021/05/02 12:41:20;;;;;;;3.15;1.50;;;27.20;55.80;;;;;;5050312;28;20762;-79
2021/05/02 12:44:25;;;;;;;2.42;1.48;;;27.50;53.20;;;;;;5052199;28;20206;-76
2021/05/02 12:47:16;;;;;;;2.33;1.65;;;27.30;53.40;;;;;;5070233;28;20190;-73
2021/05/02 12:50:06;;;;;;;3.72;2.10;;;26.90;53.30;;;;;;5059834;28;20227;-76
2021/05/02 12:52:53;;;;;;;1.35;1.25;;;26.40;53.20;;;;;;5047608;28;20230;-76
2021/05/02 12:55:38;;;;;;;2.13;1.30;;;25.90;52.90;;;;;;5043603;28;20217;-75
2021/05/02 12:58:34;;;;;;;2.87;1.63;;;25.30;53.40;;;;;;5045309;28;21059;-75
2021/05/02 13:01:21;;;;;;;2.23;2.00;;;24.60;53.10;;;;;;5048942;28;20246;-73
2021/05/02 13:04:08;;;;;;;4.40;1.90;;;23.90;57.00;;;;;;5051027;28;20199;-74
2021/05/02 13:06:54;;;;;;;4.27;1.90;;;23.40;58.20;;;;;;5045684;28;20205;-77
2021/05/02 13:09:40;;;;;;;3.23;1.80;;;23.00;58.70;;;;;;5046312;28;20301;-77
2021/05/02 13:12:26;;;;;;;2.40;1.97;;;23.00;56.20;;;;;;5045984;28;20584;-77
2021/05/02 13:15:13;;;;;;;1.50;1.10;;;23.20;58.70;;;;;;5042022;28;20896;-78
2021/05/02 13:18:07;;;;;;;1.90;1.63;;;23.20;58.50;;;;;;5046579;28;20225;-78
2021/05/02 13:20:56;;;;;;;2.10;1.60;;;23.30;57.30;;;;;;5054068;28;20294;-78
2021/05/02 13:23:42;;;;;;;3.60;1.50;;;23.40;56.60;;;;;;5047048;28;20242;-78
2021/05/02 13:26:28;;;;;;;4.00;1.60;;;23.30;56.30;;;;;;5045456;28;20214;-74
2021/05/02 13:29:16;;;;;;;1.40;1.30;;;23.20;56.30;;;;;;5044097;28;20229;-77
2021/05/02 13:32:01;;;;;;;2.93;1.53;;;23.00;56.50;;;;;;5051189;28;20207;-75
2021/05/02 13:34:46;;;;;;;2.47;1.30;;;22.70;56.60;;;;;;5052167;28;20255;-78
2021/05/02 13:37:30;;;;;;;2.97;1.30;;;22.40;58.50;;;;;;5050266;28;20328;-78
2021/05/02 13:40:17;;;;;;;2.87;1.60;;;22.30;61.30;;;;;;5049160;28;20236;-74
2021/05/02 13:43:03;;;;;;;1.93;1.33;;;22.50;58.60;;;;;;5050570;28;20212;-78
2021/05/02 13:45:48;;;;;;;2.37;1.00;;;22.80;54.80;;;;;;5047972;28;20266;-77
2021/05/02 13:48:35;;;;;;;2.70;1.10;;;23.20;55.00;;;;;;5044872;28;20219;-78
2021/05/02 13:51:20;;;;;;;1.83;1.33;;;23.70;55.30;;;;;;5047519;28;20330;-75
2021/05/02 13:54:06;;;;;;;1.50;1.27;;;24.20;56.40;;;;;;5048065;28;20234;-78
2021/05/02 13:56:51;;;;;;;1.30;1.20;;;24.80;52.50;;;;;;5044330;28;20591;-77
2021/05/02 13:59:36;;;;;;;3.20;1.70;;;25.30;52.00;;;;;;5044845;28;20812;-75
2021/05/02 14:02:21;;;;;;;2.30;1.50;;;25.60;51.70;;;;;;5042931;28;20280;-77
2021/05/02 14:05:07;;;;;;;1.40;1.00;;;25.70;52.00;;;;;;5042597;28;20209;-77
2021/05/02 14:07:52;;;;;;;1.20;1.10;;;25.80;49.10;;;;;;5041183;28;20221;-76
2021/05/02 14:10:37;;;;;;;2.50;1.37;;;25.80;49.40;;;;;;5043783;28;20228;-78
2021/05/02 14:13:23;;;;;;;3.87;2.43;;;25.80;49.70;;;;;;5048008;28;20228;-74
2021/05/02 14:16:07;;;;;;;4.63;2.10;;;25.70;50.30;;;;;;5044922;28;20678;-78
2021/05/02 14:18:52;;;;;;;1.80;1.03;;;25.40;50.20;;;;;;5050111;28;20210;-76
2021/05/02 14:21:37;;;;;;;3.83;1.40;;;25.10;50.40;;;;;;5048000;28;20270;-77
2021/05/02 14:24:23;;;;;;;2.50;1.10;;;24.60;51.60;;;;;;5042243;28;20341;-76
2021/05/02 14:27:07;;;;;;;2.83;1.37;;;24.10;54.20;;;;;;5043714;28;20212;-76
2021/05/02 14:29:53;;;;;;;2.77;1.37;;;23.60;54.40;;;;;;5041226;28;20260;-77
2021/05/02 14:32:38;;;;;;;2.17;1.23;;;23.00;56.90;;;;;;5049069;28;20352;-76
2021/05/02 14:35:22;;;;;;;1.90;1.17;;;22.50;57.50;;;;;;5044144;28;20747;-77